sensor_id;sensor_type;location;lat;lon;timestamp;P1;durP1;ratioP1;P2;durP2;ratioP2
54959;SDS011;40860;51.710;8.736;2023-05-10T00:02:11;14.68;;;13.27;;
54959;SDS011;40860;51.710;8.736;2023-05-10T00:06:18;15.93;;;14.32;;
54959;SDS011;40860;51.710;8.736;2023-05-10T00:10:21;17.02;;;15.23;;
54959;SDS011;40860;51.710;8.736;2023-05-10T00:14:24;16.58;;;14.88;;
54959;SDS011;40860;51.710;8.736;2023-05-10T00:18:31;17.85;;;15.90;;
54959;SDS011;40860;51.710;8.736;2023-05-10T00:22:38;18.42;;;16.50;;
54959;SDS011;40860;51.710;8.736;2023-05-10T00:26:41;16.67;;;15.07;;
54959;SDS011;40860;51.710;8.736;2023-05-10T00:30:44;15.73;;;14.23;;
54959;SDS011;40860;51.710;8.736;2023-05-10T00:34:47;19.95;;;17.95;;
54959;SDS011;40860;51.710;8.736;2023-05-10T00:38:51;17.95;;;16.15;;
54959;SDS011;40860;51.710;8.736;2023-05-10T00:42:54;20.23;;;17.65;;
54959;SDS011;40860;51.710;8.736;2023-05-10T00:46:57;19.95;;;17.95;;
54959;SDS011;40860;51.710;8.736;2023-05-10T00:51:01;21.85;;;17.65;;
54959;SDS011;40860;51.710;8.736;2023-05-10T00:55:07;20.08;;;17.80;;
54959;SDS011;40860;51.710;8.736;2023-05-10T00:59:13;20.00;;;17.15;;
54959;SDS011;40860;51.710;8.736;2023-05-10T01:03:16;18.67;;;16.20;;
54959;SDS011;40860;51.710;8.736;2023-05-10T01:07:19;18.63;;;16.55;;
54959;SDS011;40860;51.710;8.736;2023-05-10T01:11:24;16.73;;;15.13;;
54959;SDS011;40860;51.710;8.736;2023-05-10T01:15:27;15.93;;;14.18;;
54959;SDS011;40860;51.710;8.736;2023-05-10T01:19:30;13.18;;;11.75;;
54959;SDS011;40860;51.710;8.736;2023-05-10T01:23:41;11.18;;;10.07;;
54959;SDS011;40860;51.710;8.736;2023-05-10T01:28:10;12.00;;;10.20;;
54959;SDS011;40860;51.710;8.736;2023-05-10T01:32:32;10.00;;;8.95;;
54959;SDS011;40860;51.710;8.736;2023-05-10T01:36:42;9.45;;;8.48;;
54959;SDS011;40860;51.710;8.736;2023-05-10T01:40:51;9.63;;;8.57;;
54959;SDS011;40860;51.710;8.736;2023-05-10T01:45:06;10.00;;;9.05;;
54959;SDS011;40860;51.710;8.736;2023-05-10T01:49:19;7.43;;;6.72;;
54959;SDS011;40860;51.710;8.736;2023-05-10T01:53:25;4.63;;;4.22;;
54959;SDS011;40860;51.710;8.736;2023-05-10T01:57:31;4.07;;;3.70;;
54959;SDS011;40860;51.710;8.736;2023-05-10T02:01:36;4.20;;;3.90;;
54959;SDS011;40860;51.710;8.736;2023-05-10T02:05:41;4.88;;;4.40;;
54959;SDS011;40860;51.710;8.736;2023-05-10T02:09:45;5.82;;;5.32;;
54959;SDS011;40860;51.710;8.736;2023-05-10T02:13:50;6.72;;;6.03;;
54959;SDS011;40860;51.710;8.736;2023-05-10T02:17:59;7.35;;;6.50;;
54959;SDS011;40860;51.710;8.736;2023-05-10T02:22:11;7.60;;;6.90;;
54959;SDS011;40860;51.710;8.736;2023-05-10T02:26:19;7.07;;;6.45;;
54959;SDS011;40860;51.710;8.736;2023-05-10T02:30:24;6.38;;;5.88;;
54959;SDS011;40860;51.710;8.736;2023-05-10T02:34:28;7.07;;;6.47;;
54959;SDS011;40860;51.710;8.736;2023-05-10T02:38:33;7.10;;;6.25;;
54959;SDS011;40860;51.710;8.736;2023-05-10T02:42:38;8.05;;;6.63;;
54959;SDS011;40860;51.710;8.736;2023-05-10T02:46:45;8.02;;;6.38;;
54959;SDS011;40860;51.710;8.736;2023-05-10T02:50:49;7.15;;;6.38;;
54959;SDS011;40860;51.710;8.736;2023-05-10T02:54:56;7.30;;;6.60;;
54959;SDS011;40860;51.710;8.736;2023-05-10T02:59:02;8.00;;;6.50;;
54959;SDS011;40860;51.710;8.736;2023-05-10T03:03:06;7.80;;;6.35;;
54959;SDS011;40860;51.710;8.736;2023-05-10T03:07:09;7.40;;;6.68;;
54959;SDS011;40860;51.710;8.736;2023-05-10T03:11:21;8.15;;;7.20;;
54959;SDS011;40860;51.710;8.736;2023-05-10T03:15:37;6.82;;;6.22;;
54959;SDS011;40860;51.710;8.736;2023-05-10T03:20:06;6.88;;;6.22;;
54959;SDS011;40860;51.710;8.736;2023-05-10T03:24:13;7.53;;;6.72;;
54959;SDS011;40860;51.710;8.736;2023-05-10T03:28:20;7.15;;;6.55;;
54959;SDS011;40860;51.710;8.736;2023-05-10T03:32:24;6.45;;;5.95;;
54959;SDS011;40860;51.710;8.736;2023-05-10T03:36:28;6.82;;;6.20;;
54959;SDS011;40860;51.710;8.736;2023-05-10T03:40:32;6.38;;;5.78;;
54959;SDS011;40860;51.710;8.736;2023-05-10T03:44:37;6.18;;;5.57;;
54959;SDS011;40860;51.710;8.736;2023-05-10T03:48:39;6.30;;;5.78;;
54959;SDS011;40860;51.710;8.736;2023-05-10T03:52:43;6.38;;;5.78;;
54959;SDS011;40860;51.710;8.736;2023-05-10T03:56:45;6.43;;;5.80;;
54959;SDS011;40860;51.710;8.736;2023-05-10T04:00:52;7.15;;;6.28;;
54959;SDS011;40860;51.710;8.736;2023-05-10T04:04:55;6.53;;;5.93;;
54959;SDS011;40860;51.710;8.736;2023-05-10T04:08:58;6.65;;;6.05;;
54959;SDS011;40860;51.710;8.736;2023-05-10T04:13:05;9.13;;;6.93;;
54959;SDS011;40860;51.710;8.736;2023-05-10T04:17:09;8.57;;;7.80;;
54959;SDS011;40860;51.710;8.736;2023-05-10T04:21:12;7.13;;;6.32;;
54959;SDS011;40860;51.710;8.736;2023-05-10T04:25:15;7.55;;;6.78;;
54959;SDS011;40860;51.710;8.736;2023-05-10T04:29:18;8.43;;;7.63;;
54959;SDS011;40860;51.710;8.736;2023-05-10T04:33:24;8.20;;;7.38;;
54959;SDS011;40860;51.710;8.736;2023-05-10T04:37:27;7.97;;;7.28;;
54959;SDS011;40860;51.710;8.736;2023-05-10T04:41:29;7.00;;;6.40;;
54959;SDS011;40860;51.710;8.736;2023-05-10T04:45:32;8.30;;;6.75;;
54959;SDS011;40860;51.710;8.736;2023-05-10T04:49:37;6.53;;;5.97;;
54959;SDS011;40860;51.710;8.736;2023-05-10T04:53:40;7.38;;;5.57;;
54959;SDS011;40860;51.710;8.736;2023-05-10T04:57:51;4.80;;;4.40;;
54959;SDS011;40860;51.710;8.736;2023-05-10T05:01:54;4.80;;;4.40;;
54959;SDS011;40860;51.710;8.736;2023-05-10T05:05:58;4.35;;;3.95;;
54959;SDS011;40860;51.710;8.736;2023-05-10T05:10:01;4.07;;;3.78;;
54959;SDS011;40860;51.710;8.736;2023-05-10T05:14:04;3.42;;;3.10;;
54959;SDS011;40860;51.710;8.736;2023-05-10T05:18:07;3.55;;;3.10;;
54959;SDS011;40860;51.710;8.736;2023-05-10T05:22:11;4.43;;;3.70;;
54959;SDS011;40860;51.710;8.736;2023-05-10T05:26:14;4.18;;;3.88;;
54959;SDS011;40860;51.710;8.736;2023-05-10T05:30:17;3.88;;;3.42;;
54959;SDS011;40860;51.710;8.736;2023-05-10T05:34:20;3.85;;;3.47;;
54959;SDS011;40860;51.710;8.736;2023-05-10T05:38:24;3.20;;;2.90;;
54959;SDS011;40860;51.710;8.736;2023-05-10T05:42:27;4.45;;;3.83;;
54959;SDS011;40860;51.710;8.736;2023-05-10T05:46:30;4.90;;;4.50;;
54959;SDS011;40860;51.710;8.736;2023-05-10T05:50:33;4.80;;;4.50;;
54959;SDS011;40860;51.710;8.736;2023-05-10T05:54:37;5.10;;;4.70;;
54959;SDS011;40860;51.710;8.736;2023-05-10T05:58:40;4.22;;;3.92;;
54959;SDS011;40860;51.710;8.736;2023-05-10T06:02:43;3.88;;;3.58;;
54959;SDS011;40860;51.710;8.736;2023-05-10T06:06:46;3.47;;;3.17;;
54959;SDS011;40860;51.710;8.736;2023-05-10T06:10:50;3.70;;;3.40;;
54959;SDS011;40860;51.710;8.736;2023-05-10T06:14:53;3.05;;;2.78;;
54959;SDS011;40860;51.710;8.736;2023-05-10T06:18:56;2.85;;;2.63;;
54959;SDS011;40860;51.710;8.736;2023-05-10T06:22:59;2.65;;;2.45;;
54959;SDS011;40860;51.710;8.736;2023-05-10T06:27:03;2.50;;;2.25;;
54959;SDS011;40860;51.710;8.736;2023-05-10T06:31:05;3.97;;;3.35;;
54959;SDS011;40860;51.710;8.736;2023-05-10T06:35:09;4.38;;;3.97;;
54959;SDS011;40860;51.710;8.736;2023-05-10T06:39:12;3.63;;;3.33;;
54959;SDS011;40860;51.710;8.736;2023-05-10T06:43:16;3.65;;;3.42;;
54959;SDS011;40860;51.710;8.736;2023-05-10T06:47:19;3.72;;;3.42;;
54959;SDS011;40860;51.710;8.736;2023-05-10T06:51:23;3.42;;;3.10;;
54959;SDS011;40860;51.710;8.736;2023-05-10T06:55:26;3.78;;;3.47;;
54959;SDS011;40860;51.710;8.736;2023-05-10T06:59:30;4.65;;;3.17;;
54959;SDS011;40860;51.710;8.736;2023-05-10T07:03:33;3.38;;;3.08;;
54959;SDS011;40860;51.710;8.736;2023-05-10T07:07:37;4.07;;;3.63;;
54959;SDS011;40860;51.710;8.736;2023-05-10T07:11:40;3.92;;;3.63;;
54959;SDS011;40860;51.710;8.736;2023-05-10T07:15:45;4.78;;;3.55;;
54959;SDS011;40860;51.710;8.736;2023-05-10T07:19:48;3.92;;;3.50;;
54959;SDS011;40860;51.710;8.736;2023-05-10T07:23:51;4.03;;;3.63;;
54959;SDS011;40860;51.710;8.736;2023-05-10T07:27:53;4.75;;;3.22;;
54959;SDS011;40860;51.710;8.736;2023-05-10T07:31:57;3.70;;;3.40;;
54959;SDS011;40860;51.710;8.736;2023-05-10T07:36:00;5.15;;;3.63;;
54959;SDS011;40860;51.710;8.736;2023-05-10T07:40:03;4.45;;;3.20;;
54959;SDS011;40860;51.710;8.736;2023-05-10T07:44:07;4.13;;;3.72;;
54959;SDS011;40860;51.710;8.736;2023-05-10T07:48:11;5.25;;;4.20;;
54959;SDS011;40860;51.710;8.736;2023-05-10T07:52:14;5.15;;;4.30;;
54959;SDS011;40860;51.710;8.736;2023-05-10T07:56:21;7.68;;;5.72;;
54959;SDS011;40860;51.710;8.736;2023-05-10T08:00:26;6.45;;;5.85;;
54959;SDS011;40860;51.710;8.736;2023-05-10T08:04:30;6.32;;;5.65;;
54959;SDS011;40860;51.710;8.736;2023-05-10T08:08:33;7.47;;;6.35;;
54959;SDS011;40860;51.710;8.736;2023-05-10T08:12:36;7.82;;;7.03;;
54959;SDS011;40860;51.710;8.736;2023-05-10T08:16:39;7.63;;;6.85;;
54959;SDS011;40860;51.710;8.736;2023-05-10T08:20:43;10.07;;;7.97;;
54959;SDS011;40860;51.710;8.736;2023-05-10T08:24:46;10.63;;;8.52;;
54959;SDS011;40860;51.710;8.736;2023-05-10T08:28:49;14.80;;;12.00;;
54959;SDS011;40860;51.710;8.736;2023-05-10T08:32:52;16.20;;;13.35;;
54959;SDS011;40860;51.710;8.736;2023-05-10T08:36:56;18.38;;;15.02;;
54959;SDS011;40860;51.710;8.736;2023-05-10T08:40:59;20.50;;;15.35;;
54959;SDS011;40860;51.710;8.736;2023-05-10T08:45:04;19.13;;;15.45;;
54959;SDS011;40860;51.710;8.736;2023-05-10T08:49:09;18.02;;;15.25;;
54959;SDS011;40860;51.710;8.736;2023-05-10T08:53:16;23.75;;;18.27;;
54959;SDS011;40860;51.710;8.736;2023-05-10T08:57:20;23.50;;;17.65;;
54959;SDS011;40860;51.710;8.736;2023-05-10T09:01:23;27.10;;;18.35;;
54959;SDS011;40860;51.710;8.736;2023-05-10T09:05:27;26.52;;;18.05;;
54959;SDS011;40860;51.710;8.736;2023-05-10T09:09:32;25.15;;;17.95;;
54959;SDS011;40860;51.710;8.736;2023-05-10T09:13:36;24.70;;;18.10;;
54959;SDS011;40860;51.710;8.736;2023-05-10T09:17:38;27.77;;;19.52;;
54959;SDS011;40860;51.710;8.736;2023-05-10T09:21:44;26.60;;;19.70;;
54959;SDS011;40860;51.710;8.736;2023-05-10T09:25:48;25.88;;;19.48;;
54959;SDS011;40860;51.710;8.736;2023-05-10T09:30:06;26.40;;;20.13;;
54959;SDS011;40860;51.710;8.736;2023-05-10T09:34:10;28.83;;;20.98;;
54959;SDS011;40860;51.710;8.736;2023-05-10T09:38:12;26.23;;;19.48;;
54959;SDS011;40860;51.710;8.736;2023-05-10T09:42:17;26.45;;;19.45;;
54959;SDS011;40860;51.710;8.736;2023-05-10T09:46:20;25.42;;;18.83;;
54959;SDS011;40860;51.710;8.736;2023-05-10T09:50:23;28.05;;;19.67;;
54959;SDS011;40860;51.710;8.736;2023-05-10T09:54:27;26.88;;;20.15;;
54959;SDS011;40860;51.710;8.736;2023-05-10T09:58:31;24.23;;;19.13;;
54959;SDS011;40860;51.710;8.736;2023-05-10T10:02:39;25.90;;;19.95;;
54959;SDS011;40860;51.710;8.736;2023-05-10T10:06:42;25.25;;;20.33;;
54959;SDS011;40860;51.710;8.736;2023-05-10T10:10:44;24.83;;;19.48;;
54959;SDS011;40860;51.710;8.736;2023-05-10T10:14:51;25.38;;;20.65;;
54959;SDS011;40860;51.710;8.736;2023-05-10T10:18:55;24.25;;;20.17;;
54959;SDS011;40860;51.710;8.736;2023-05-10T10:22:59;24.00;;;18.83;;
54959;SDS011;40860;51.710;8.736;2023-05-10T10:27:10;22.40;;;19.60;;
54959;SDS011;40860;51.710;8.736;2023-05-10T10:31:26;26.95;;;18.85;;
54959;SDS011;40860;51.710;8.736;2023-05-10T10:35:57;23.42;;;19.08;;
54959;SDS011;40860;51.710;8.736;2023-05-10T10:40:07;23.55;;;18.35;;
54959;SDS011;40860;51.710;8.736;2023-05-10T10:44:38;22.67;;;18.55;;
54959;SDS011;40860;51.710;8.736;2023-05-10T10:48:48;24.65;;;20.50;;
54959;SDS011;40860;51.710;8.736;2023-05-10T10:52:58;23.58;;;18.20;;
54959;SDS011;40860;51.710;8.736;2023-05-10T10:57:13;21.90;;;17.38;;
54959;SDS011;40860;51.710;8.736;2023-05-10T11:01:19;21.83;;;17.33;;
54959;SDS011;40860;51.710;8.736;2023-05-10T11:05:25;20.67;;;17.13;;
54959;SDS011;40860;51.710;8.736;2023-05-10T11:09:39;21.80;;;17.80;;
54959;SDS011;40860;51.710;8.736;2023-05-10T11:13:42;22.35;;;18.48;;
54959;SDS011;40860;51.710;8.736;2023-05-10T11:17:50;23.02;;;18.55;;
54959;SDS011;40860;51.710;8.736;2023-05-10T11:26:16;22.17;;;17.83;;
54959;SDS011;40860;51.710;8.736;2023-05-10T11:30:20;23.88;;;17.85;;
54959;SDS011;40860;51.710;8.736;2023-05-10T11:34:25;22.55;;;18.35;;
54959;SDS011;40860;51.710;8.736;2023-05-10T11:38:32;20.75;;;17.42;;
54959;SDS011;40860;51.710;8.736;2023-05-10T11:42:35;21.40;;;17.80;;
54959;SDS011;40860;51.710;8.736;2023-05-10T11:46:39;25.33;;;18.98;;
54959;SDS011;40860;51.710;8.736;2023-05-10T11:50:43;19.02;;;16.70;;
54959;SDS011;40860;51.710;8.736;2023-05-10T11:54:55;20.25;;;17.38;;
54959;SDS011;40860;51.710;8.736;2023-05-10T11:58:59;19.98;;;16.70;;
54959;SDS011;40860;51.710;8.736;2023-05-10T12:03:03;17.90;;;13.05;;
54959;SDS011;40860;51.710;8.736;2023-05-10T12:07:08;16.70;;;13.88;;
54959;SDS011;40860;51.710;8.736;2023-05-10T12:11:13;14.95;;;13.35;;
54959;SDS011;40860;51.710;8.736;2023-05-10T12:15:17;15.13;;;13.25;;
54959;SDS011;40860;51.710;8.736;2023-05-10T12:19:22;15.90;;;13.20;;
54959;SDS011;40860;51.710;8.736;2023-05-10T12:23:25;11.48;;;10.32;;
54959;SDS011;40860;51.710;8.736;2023-05-10T12:27:32;12.27;;;10.13;;
54959;SDS011;40860;51.710;8.736;2023-05-10T12:31:50;11.68;;;10.23;;
54959;SDS011;40860;51.710;8.736;2023-05-10T12:35:54;9.60;;;7.88;;
54959;SDS011;40860;51.710;8.736;2023-05-10T12:39:57;3.63;;;3.10;;
54959;SDS011;40860;51.710;8.736;2023-05-10T12:44:03;3.45;;;3.15;;
54959;SDS011;40860;51.710;8.736;2023-05-10T12:48:06;4.22;;;3.83;;
54959;SDS011;40860;51.710;8.736;2023-05-10T12:52:09;3.20;;;3.00;;
54959;SDS011;40860;51.710;8.736;2023-05-10T12:56:16;3.33;;;3.03;;
54959;SDS011;40860;51.710;8.736;2023-05-10T13:00:20;3.63;;;3.33;;
54959;SDS011;40860;51.710;8.736;2023-05-10T13:04:23;4.70;;;4.30;;
54959;SDS011;40860;51.710;8.736;2023-05-10T13:08:30;4.55;;;4.10;;
54959;SDS011;40860;51.710;8.736;2023-05-10T13:12:35;5.10;;;4.60;;
54959;SDS011;40860;51.710;8.736;2023-05-10T13:16:39;4.53;;;4.07;;
54959;SDS011;40860;51.710;8.736;2023-05-10T13:20:42;3.58;;;3.30;;
54959;SDS011;40860;51.710;8.736;2023-05-10T13:24:45;5.13;;;4.03;;
54959;SDS011;40860;51.710;8.736;2023-05-10T13:28:48;7.50;;;6.80;;
54959;SDS011;40860;51.710;8.736;2023-05-10T13:32:54;6.65;;;6.05;;
54959;SDS011;40860;51.710;8.736;2023-05-10T13:36:57;5.53;;;5.03;;
54959;SDS011;40860;51.710;8.736;2023-05-10T13:41:00;5.68;;;4.88;;
54959;SDS011;40860;51.710;8.736;2023-05-10T13:45:03;7.03;;;6.10;;
54959;SDS011;40860;51.710;8.736;2023-05-10T13:49:09;7.20;;;6.50;;
54959;SDS011;40860;51.710;8.736;2023-05-10T13:53:12;9.50;;;8.18;;
54959;SDS011;40860;51.710;8.736;2023-05-10T13:57:15;12.07;;;8.98;;
54959;SDS011;40860;51.710;8.736;2023-05-10T14:01:18;11.68;;;10.18;;
54959;SDS011;40860;51.710;8.736;2023-05-10T14:05:22;12.98;;;11.50;;
54959;SDS011;40860;51.710;8.736;2023-05-10T14:09:26;16.75;;;14.75;;
54959;SDS011;40860;51.710;8.736;2023-05-10T14:13:29;12.85;;;9.93;;
54959;SDS011;40860;51.710;8.736;2023-05-10T14:17:32;17.02;;;10.90;;
54959;SDS011;40860;51.710;8.736;2023-05-10T14:21:37;18.88;;;11.20;;
54959;SDS011;40860;51.710;8.736;2023-05-10T14:25:40;17.52;;;10.88;;
54959;SDS011;40860;51.710;8.736;2023-05-10T14:29:43;18.85;;;11.93;;
54959;SDS011;40860;51.710;8.736;2023-05-10T14:33:46;16.90;;;13.55;;
54959;SDS011;40860;51.710;8.736;2023-05-10T14:37:50;20.08;;;13.88;;
54959;SDS011;40860;51.710;8.736;2023-05-10T14:41:53;20.58;;;13.27;;
54959;SDS011;40860;51.710;8.736;2023-05-10T14:45:56;19.30;;;13.68;;
54959;SDS011;40860;51.710;8.736;2023-05-10T14:49:58;14.68;;;12.30;;
54959;SDS011;40860;51.710;8.736;2023-05-10T14:54:04;15.93;;;12.45;;
54959;SDS011;40860;51.710;8.736;2023-05-10T14:58:07;10.82;;;9.32;;
54959;SDS011;40860;51.710;8.736;2023-05-10T15:02:09;13.85;;;8.93;;
54959;SDS011;40860;51.710;8.736;2023-05-10T15:06:13;10.73;;;8.90;;
54959;SDS011;40860;51.710;8.736;2023-05-10T15:10:18;9.50;;;8.48;;
54959;SDS011;40860;51.710;8.736;2023-05-10T15:14:21;7.82;;;6.72;;
54959;SDS011;40860;51.710;8.736;2023-05-10T15:18:24;6.68;;;6.05;;
54959;SDS011;40860;51.710;8.736;2023-05-10T15:22:27;8.75;;;7.15;;
54959;SDS011;40860;51.710;8.736;2023-05-10T15:26:34;8.50;;;7.55;;
54959;SDS011;40860;51.710;8.736;2023-05-10T15:30:38;10.15;;;8.68;;
54959;SDS011;40860;51.710;8.736;2023-05-10T15:34:40;8.18;;;7.07;;
54959;SDS011;40860;51.710;8.736;2023-05-10T15:38:43;8.40;;;7.43;;
54959;SDS011;40860;51.710;8.736;2023-05-10T15:42:48;14.70;;;10.32;;
54959;SDS011;40860;51.710;8.736;2023-05-10T15:46:51;7.90;;;6.85;;
54959;SDS011;40860;51.710;8.736;2023-05-10T15:50:54;9.70;;;7.85;;
54959;SDS011;40860;51.710;8.736;2023-05-10T15:54:58;10.95;;;9.52;;
54959;SDS011;40860;51.710;8.736;2023-05-10T15:59:02;14.80;;;11.05;;
54959;SDS011;40860;51.710;8.736;2023-05-10T16:03:06;12.93;;;11.52;;
54959;SDS011;40860;51.710;8.736;2023-05-10T16:07:09;8.98;;;8.05;;
54959;SDS011;40860;51.710;8.736;2023-05-10T16:11:13;10.70;;;9.15;;
54959;SDS011;40860;51.710;8.736;2023-05-10T16:15:17;13.68;;;10.15;;
54959;SDS011;40860;51.710;8.736;2023-05-10T16:19:22;13.02;;;10.27;;
54959;SDS011;40860;51.710;8.736;2023-05-10T16:23:25;10.75;;;9.60;;
54959;SDS011;40860;51.710;8.736;2023-05-10T16:27:36;12.52;;;11.18;;
54959;SDS011;40860;51.710;8.736;2023-05-10T16:31:41;16.20;;;12.00;;
54959;SDS011;40860;51.710;8.736;2023-05-10T16:35:44;15.38;;;13.38;;
54959;SDS011;40860;51.710;8.736;2023-05-10T16:39:47;15.25;;;11.82;;
54959;SDS011;40860;51.710;8.736;2023-05-10T16:43:50;13.55;;;11.18;;
54959;SDS011;40860;51.710;8.736;2023-05-10T16:47:54;10.57;;;9.27;;
54959;SDS011;40860;51.710;8.736;2023-05-10T16:56:07;12.27;;;9.73;;
54959;SDS011;40860;51.710;8.736;2023-05-10T17:00:11;11.98;;;9.93;;
54959;SDS011;40860;51.710;8.736;2023-05-10T17:04:16;11.75;;;9.75;;
54959;SDS011;40860;51.710;8.736;2023-05-10T17:08:20;12.32;;;10.05;;
54959;SDS011;40860;51.710;8.736;2023-05-10T17:12:23;14.82;;;9.68;;
54959;SDS011;40860;51.710;8.736;2023-05-10T17:16:26;11.55;;;9.73;;
54959;SDS011;40860;51.710;8.736;2023-05-10T17:20:31;10.65;;;8.90;;
54959;SDS011;40860;51.710;8.736;2023-05-10T17:24:35;12.55;;;10.00;;
54959;SDS011;40860;51.710;8.736;2023-05-10T17:28:38;13.63;;;10.65;;
54959;SDS011;40860;51.710;8.736;2023-05-10T17:32:41;13.20;;;10.30;;
54959;SDS011;40860;51.710;8.736;2023-05-10T17:36:45;13.70;;;10.50;;
54959;SDS011;40860;51.710;8.736;2023-05-10T17:40:49;13.93;;;11.27;;
54959;SDS011;40860;51.710;8.736;2023-05-10T17:44:53;17.00;;;12.98;;
54959;SDS011;40860;51.710;8.736;2023-05-10T17:48:56;15.35;;;12.82;;
54959;SDS011;40860;51.710;8.736;2023-05-10T17:53:00;14.98;;;11.98;;
54959;SDS011;40860;51.710;8.736;2023-05-10T17:57:04;15.00;;;11.88;;
54959;SDS011;40860;51.710;8.736;2023-05-10T18:01:07;16.60;;;12.93;;
54959;SDS011;40860;51.710;8.736;2023-05-10T18:05:10;14.27;;;12.13;;
54959;SDS011;40860;51.710;8.736;2023-05-10T18:09:15;15.88;;;11.25;;
54959;SDS011;40860;51.710;8.736;2023-05-10T18:13:18;14.30;;;11.70;;
54959;SDS011;40860;51.710;8.736;2023-05-10T18:17:21;13.52;;;11.05;;
54959;SDS011;40860;51.710;8.736;2023-05-10T18:21:25;14.25;;;11.85;;
54959;SDS011;40860;51.710;8.736;2023-05-10T18:25:29;12.68;;;10.57;;
54959;SDS011;40860;51.710;8.736;2023-05-10T18:29:32;13.40;;;10.70;;
54959;SDS011;40860;51.710;8.736;2023-05-10T18:33:36;12.05;;;9.48;;
54959;SDS011;40860;51.710;8.736;2023-05-10T18:37:40;12.20;;;9.77;;
54959;SDS011;40860;51.710;8.736;2023-05-10T18:41:45;12.20;;;9.45;;
54959;SDS011;40860;51.710;8.736;2023-05-10T18:45:48;11.75;;;10.27;;
54959;SDS011;40860;51.710;8.736;2023-05-10T18:49:51;12.15;;;9.63;;
54959;SDS011;40860;51.710;8.736;2023-05-10T18:53:54;11.48;;;9.90;;
54959;SDS011;40860;51.710;8.736;2023-05-10T18:57:59;11.45;;;10.05;;
54959;SDS011;40860;51.710;8.736;2023-05-10T19:02:02;12.60;;;9.57;;
54959;SDS011;40860;51.710;8.736;2023-05-10T19:06:05;12.75;;;9.75;;
54959;SDS011;40860;51.710;8.736;2023-05-10T19:10:09;14.30;;;10.75;;
54959;SDS011;40860;51.710;8.736;2023-05-10T19:14:15;13.48;;;11.13;;
54959;SDS011;40860;51.710;8.736;2023-05-10T19:18:18;13.45;;;10.35;;
54959;SDS011;40860;51.710;8.736;2023-05-10T19:22:22;13.38;;;10.98;;
54959;SDS011;40860;51.710;8.736;2023-05-10T19:26:45;14.77;;;11.18;;
54959;SDS011;40860;51.710;8.736;2023-05-10T19:30:50;14.93;;;10.82;;
54959;SDS011;40860;51.710;8.736;2023-05-10T19:34:54;17.65;;;12.15;;
54959;SDS011;40860;51.710;8.736;2023-05-10T19:38:57;17.23;;;13.18;;
54959;SDS011;40860;51.710;8.736;2023-05-10T19:43:00;14.02;;;11.90;;
54959;SDS011;40860;51.710;8.736;2023-05-10T19:47:05;15.63;;;12.45;;
54959;SDS011;40860;51.710;8.736;2023-05-10T19:51:09;15.43;;;12.65;;
54959;SDS011;40860;51.710;8.736;2023-05-10T19:55:13;21.10;;;13.32;;
54959;SDS011;40860;51.710;8.736;2023-05-10T19:59:17;17.60;;;12.82;;
54959;SDS011;40860;51.710;8.736;2023-05-10T20:03:21;17.75;;;13.70;;
54959;SDS011;40860;51.710;8.736;2023-05-10T20:07:25;18.50;;;14.48;;
54959;SDS011;40860;51.710;8.736;2023-05-10T20:11:28;15.65;;;12.80;;
54959;SDS011;40860;51.710;8.736;2023-05-10T20:15:31;15.90;;;12.75;;
54959;SDS011;40860;51.710;8.736;2023-05-10T20:19:36;16.55;;;12.52;;
54959;SDS011;40860;51.710;8.736;2023-05-10T20:23:39;17.48;;;13.50;;
54959;SDS011;40860;51.710;8.736;2023-05-10T20:27:42;16.60;;;12.02;;
54959;SDS011;40860;51.710;8.736;2023-05-10T20:31:45;16.15;;;12.75;;
54959;SDS011;40860;51.710;8.736;2023-05-10T20:35:49;13.82;;;11.50;;
54959;SDS011;40860;51.710;8.736;2023-05-10T20:39:54;11.75;;;10.55;;
54959;SDS011;40860;51.710;8.736;2023-05-10T20:43:57;12.45;;;10.93;;
54959;SDS011;40860;51.710;8.736;2023-05-10T20:48:01;13.10;;;10.90;;
54959;SDS011;40860;51.710;8.736;2023-05-10T20:52:05;11.95;;;10.48;;
54959;SDS011;40860;51.710;8.736;2023-05-10T20:56:10;11.70;;;10.32;;
54959;SDS011;40860;51.710;8.736;2023-05-10T21:00:13;11.35;;;9.10;;
54959;SDS011;40860;51.710;8.736;2023-05-10T21:04:17;11.30;;;9.40;;
54959;SDS011;40860;51.710;8.736;2023-05-10T21:08:21;11.80;;;10.10;;
54959;SDS011;40860;51.710;8.736;2023-05-10T21:12:24;11.50;;;10.30;;
54959;SDS011;40860;51.710;8.736;2023-05-10T21:16:27;12.75;;;10.25;;
54959;SDS011;40860;51.710;8.736;2023-05-10T21:20:31;12.50;;;11.00;;
54959;SDS011;40860;51.710;8.736;2023-05-10T21:24:35;12.40;;;10.35;;
54959;SDS011;40860;51.710;8.736;2023-05-10T21:28:39;11.25;;;9.82;;
54959;SDS011;40860;51.710;8.736;2023-05-10T21:32:44;11.48;;;9.10;;
54959;SDS011;40860;51.710;8.736;2023-05-10T21:36:50;11.60;;;9.73;;
54959;SDS011;40860;51.710;8.736;2023-05-10T21:40:54;12.02;;;9.73;;
54959;SDS011;40860;51.710;8.736;2023-05-10T21:44:58;13.82;;;11.68;;
54959;SDS011;40860;51.710;8.736;2023-05-10T21:49:01;14.60;;;10.88;;
54959;SDS011;40860;51.710;8.736;2023-05-10T21:53:05;13.98;;;9.77;;
54959;SDS011;40860;51.710;8.736;2023-05-10T21:57:12;14.13;;;11.43;;
54959;SDS011;40860;51.710;8.736;2023-05-10T22:01:24;14.00;;;10.80;;
54959;SDS011;40860;51.710;8.736;2023-05-10T22:05:32;12.25;;;10.35;;
54959;SDS011;40860;51.710;8.736;2023-05-10T22:09:38;17.40;;;12.07;;
54959;SDS011;40860;51.710;8.736;2023-05-10T22:13:50;13.20;;;11.27;;
54959;SDS011;40860;51.710;8.736;2023-05-10T22:18:04;15.63;;;11.57;;
54959;SDS011;40860;51.710;8.736;2023-05-10T22:22:22;16.35;;;11.88;;
54959;SDS011;40860;51.710;8.736;2023-05-10T22:26:28;14.32;;;11.63;;
54959;SDS011;40860;51.710;8.736;2023-05-10T22:31:01;13.65;;;10.43;;
54959;SDS011;40860;51.710;8.736;2023-05-10T22:36:16;11.00;;;9.88;;
54959;SDS011;40860;51.710;8.736;2023-05-10T22:40:25;12.95;;;10.98;;
54959;SDS011;40860;51.710;8.736;2023-05-10T22:44:35;11.85;;;9.88;;
54959;SDS011;40860;51.710;8.736;2023-05-10T22:48:40;12.65;;;9.85;;
54959;SDS011;40860;51.710;8.736;2023-05-10T22:52:45;13.10;;;9.48;;
54959;SDS011;40860;51.710;8.736;2023-05-10T22:56:48;14.45;;;10.02;;
54959;SDS011;40860;51.710;8.736;2023-05-10T23:00:51;13.52;;;10.05;;
54959;SDS011;40860;51.710;8.736;2023-05-10T23:04:57;11.55;;;10.20;;
54959;SDS011;40860;51.710;8.736;2023-05-10T23:09:00;13.13;;;11.02;;
54959;SDS011;40860;51.710;8.736;2023-05-10T23:13:11;13.57;;;11.52;;
54959;SDS011;40860;51.710;8.736;2023-05-10T23:17:15;12.77;;;10.88;;
54959;SDS011;40860;51.710;8.736;2023-05-10T23:21:22;12.93;;;10.93;;
54959;SDS011;40860;51.710;8.736;2023-05-10T23:25:28;14.02;;;11.00;;
54959;SDS011;40860;51.710;8.736;2023-05-10T23:29:36;14.43;;;11.02;;
54959;SDS011;40860;51.710;8.736;2023-05-10T23:33:42;13.23;;;10.57;;
54959;SDS011;40860;51.710;8.736;2023-05-10T23:43:35;16.40;;;11.40;;
54959;SDS011;40860;51.710;8.736;2023-05-10T23:48:44;14.32;;;11.55;;
54959;SDS011;40860;51.710;8.736;2023-05-10T23:53:48;20.75;;;15.05;;
